createdAt,value
2023-02-15T10:12:47.213Z,0.84
2023-02-15T10:13:50.052Z,0.76
2023-02-15T10:14:52.689Z,0.75
2023-02-15T10:15:55.215Z,0.77
2023-02-15T10:16:57.962Z,0.65
2023-02-15T10:18:00.558Z,0.73
2023-02-15T10:20:20.778Z,0.89
2023-02-15T10:21:23.312Z,0.79
2023-02-15T10:22:25.874Z,0.81
2023-02-15T10:23:28.768Z,0.75
2023-02-15T10:24:31.457Z,0.80
2023-02-15T10:25:34.214Z,0.85
2023-02-15T10:26:36.747Z,0.85
2023-02-15T10:27:39.282Z,1.02
2023-02-15T10:28:42.054Z,0.99
2023-02-15T10:29:44.607Z,1.02
2023-02-15T10:30:47.482Z,0.95
2023-02-15T10:31:50.195Z,1.03
2023-02-15T10:32:52.849Z,1.06
2023-02-15T10:33:55.416Z,1.07
2023-02-15T10:34:57.989Z,1.06
2023-02-15T10:36:00.622Z,0.99
2023-02-15T10:37:03.192Z,0.99
2023-02-15T10:38:05.728Z,1.08
2023-02-15T10:39:08.336Z,1.04
2023-02-15T10:40:11.566Z,1.18
2023-02-15T10:41:14.160Z,1.10
2023-02-15T10:42:16.790Z,1.00
2023-02-15T10:43:19.309Z,1.05
2023-02-15T10:44:21.934Z,1.04
2023-02-15T10:45:24.467Z,1.20
2023-02-15T10:46:27.577Z,1.12
2023-02-15T10:47:30.181Z,1.09
2023-02-15T10:48:32.826Z,1.07
2023-02-15T10:49:35.475Z,1.08
2023-02-15T10:50:38.105Z,1.16
2023-02-15T10:51:40.641Z,1.06
2023-02-15T10:52:43.184Z,1.07
2023-02-15T10:53:45.741Z,1.07
2023-02-15T10:54:48.342Z,1.06
2023-02-15T10:55:50.902Z,1.05
2023-02-15T10:56:53.585Z,1.05
2023-02-15T10:57:56.287Z,1.06
2023-02-15T10:58:58.823Z,1.01
2023-02-15T11:00:01.267Z,1.01
2023-02-15T11:01:04.178Z,1.07
2023-02-15T11:02:07.220Z,1.10
2023-02-15T11:03:09.810Z,1.13
2023-02-15T11:04:12.391Z,1.03
2023-02-15T11:05:15.017Z,0.96
2023-02-15T11:06:17.975Z,0.78
2023-02-15T11:07:20.508Z,0.31
2023-02-15T11:08:23.045Z,0.63
2023-02-15T11:09:25.588Z,0.66
2023-02-15T11:10:28.278Z,0.74
2023-02-15T11:11:31.123Z,0.63
2023-02-15T11:12:33.820Z,0.68
2023-02-15T11:13:36.388Z,0.71
2023-02-15T11:14:38.928Z,0.76
2023-02-15T11:15:41.566Z,0.75
2023-02-15T11:16:44.540Z,0.68
2023-02-15T11:17:47.078Z,0.73
2023-02-15T11:18:49.617Z,0.74
2023-02-15T11:19:52.182Z,0.67
2023-02-15T11:20:54.970Z,0.73
2023-02-15T11:21:57.586Z,0.75
2023-02-15T11:23:00.124Z,0.82
2023-02-15T11:24:02.677Z,0.84
2023-02-15T11:25:05.300Z,0.95
2023-02-15T11:26:08.340Z,0.88
2023-02-15T11:27:10.922Z,0.78
2023-02-15T11:28:13.603Z,0.69
2023-02-15T11:29:16.173Z,0.73
2023-02-15T11:30:20.074Z,0.72
2023-02-15T11:31:23.018Z,0.75
2023-02-15T11:32:25.916Z,0.82
2023-02-15T11:33:28.447Z,0.88
2023-02-15T11:34:30.980Z,0.90
2023-02-15T11:35:33.817Z,0.80
2023-02-15T11:36:36.676Z,0.83
2023-02-15T11:37:39.208Z,0.80
2023-02-15T11:38:41.792Z,0.78
2023-02-15T11:39:44.313Z,0.78
2023-02-15T11:40:46.867Z,0.81
2023-02-15T11:41:49.448Z,0.75
2023-02-15T11:42:51.991Z,0.85
2023-02-15T11:43:54.523Z,0.75
2023-02-15T11:44:57.114Z,0.79
2023-02-15T11:45:59.685Z,0.86
2023-02-15T11:47:02.317Z,0.87
2023-02-15T11:48:04.874Z,0.98
2023-02-15T11:49:07.612Z,0.90
2023-02-15T11:50:11.981Z,0.92
2023-02-15T11:51:14.521Z,1.01
2023-02-15T11:52:17.103Z,1.04
2023-02-15T11:53:19.635Z,1.00
2023-02-15T11:54:22.180Z,0.99
2023-02-15T11:55:24.933Z,0.98
2023-02-15T11:56:27.636Z,1.02
2023-02-15T11:57:30.247Z,1.07
2023-02-15T11:58:33.046Z,0.92
2023-02-15T11:59:36.038Z,0.99
2023-02-15T12:00:38.900Z,0.87
2023-02-15T12:01:41.428Z,1.02
2023-02-15T12:02:44.012Z,0.89
2023-02-15T12:03:46.592Z,0.84
2023-02-15T12:04:49.430Z,0.92
2023-02-15T12:05:51.988Z,0.76
2023-02-15T12:06:55.032Z,0.79
2023-02-15T12:07:57.923Z,0.83
2023-02-15T12:09:00.688Z,0.77
2023-02-15T12:10:03.456Z,0.81
2023-02-15T12:11:06.505Z,0.81
2023-02-15T12:12:09.046Z,0.79
2023-02-15T12:13:11.617Z,0.80
2023-02-15T12:14:14.286Z,0.72
2023-02-15T12:15:17.151Z,0.77
2023-02-15T12:16:19.904Z,0.59
2023-02-15T12:17:22.844Z,0.73
2023-02-15T12:18:25.449Z,0.71
2023-02-15T12:19:28.009Z,0.54
2023-02-15T12:20:30.749Z,0.64
2023-02-15T12:21:33.285Z,0.69
2023-02-15T12:22:35.843Z,0.70
2023-02-15T12:23:38.416Z,0.72
2023-02-15T12:24:40.969Z,0.71
2023-02-15T12:25:43.510Z,0.79
2023-02-15T12:26:46.464Z,0.86
2023-02-15T12:27:48.998Z,0.85
2023-02-15T12:28:51.629Z,0.87
2023-02-15T12:29:54.228Z,0.78
2023-02-15T12:30:57.373Z,0.87
2023-02-15T12:32:00.352Z,0.87
2023-02-15T12:33:03.094Z,0.80
2023-02-15T12:34:05.700Z,0.76
2023-02-15T12:35:08.311Z,0.83
2023-02-15T12:36:11.777Z,0.83
2023-02-15T12:37:14.337Z,0.83
2023-02-15T12:38:16.887Z,0.83
2023-02-15T12:39:19.501Z,0.85
2023-02-15T12:40:22.476Z,0.77
2023-02-15T12:41:25.014Z,0.73
2023-02-15T12:42:27.569Z,0.78
2023-02-15T12:43:30.099Z,0.75
2023-02-15T12:44:32.776Z,0.86
2023-02-15T12:45:35.409Z,0.71
2023-02-15T12:46:38.426Z,0.63
2023-02-15T12:47:41.112Z,0.55
2023-02-15T12:48:43.670Z,0.61
2023-02-15T12:49:47.956Z,0.62
2023-02-15T12:50:58.052Z,0.40
2023-02-15T12:51:55.351Z,0.51
2023-02-15T12:52:57.935Z,0.44
2023-02-15T12:54:00.479Z,0.47
2023-02-15T12:55:03.111Z,0.41
2023-02-15T12:56:05.851Z,0.41
2023-02-15T12:57:08.706Z,0.58
2023-02-15T12:58:14.554Z,0.43
2023-02-15T12:59:23.115Z,0.37
2023-02-15T13:00:22.096Z,0.45
2023-02-15T13:01:25.912Z,0.47
2023-02-15T13:02:28.547Z,0.30
2023-02-15T13:03:31.091Z,0.37
2023-02-15T13:04:33.553Z,0.35
2023-02-15T13:05:36.050Z,0.46
2023-02-15T13:06:39.304Z,0.52
2023-02-15T13:07:42.050Z,0.46
2023-02-15T13:08:44.608Z,0.34
2023-02-15T13:09:47.152Z,0.20
2023-02-15T13:10:50.014Z,0.23
2023-02-15T13:11:52.594Z,0.16
2023-02-15T13:12:55.206Z,0.23
2023-02-15T13:13:58.005Z,0.16
2023-02-15T13:15:00.574Z,0.22
2023-02-15T13:16:03.381Z,0.23
2023-02-15T13:17:08.691Z,0.20
2023-02-15T13:18:10.496Z,0.21
2023-02-15T13:19:13.122Z,0.35
2023-02-15T13:20:16.492Z,0.31
2023-02-15T13:21:19.074Z,0.27
2023-02-15T13:22:21.630Z,0.26
2023-02-15T13:23:24.170Z,0.14
2023-02-15T13:24:26.852Z,0.37
2023-02-15T13:25:29.487Z,0.28
2023-02-15T13:26:32.256Z,0.33
2023-02-15T13:27:34.711Z,0.25
2023-02-15T13:28:37.146Z,0.17
2023-02-15T13:29:39.684Z,0.07
2023-02-15T13:30:42.496Z,0.14
2023-02-15T13:31:45.033Z,0.14
2023-02-15T13:32:47.935Z,0.11
2023-02-15T13:33:50.381Z,0.15
2023-02-15T13:34:52.870Z,0.08
2023-02-15T13:35:55.321Z,0.07
2023-02-15T13:36:58.310Z,0.19
2023-02-15T13:38:00.906Z,0.18
2023-02-15T13:39:03.482Z,0.20
2023-02-15T13:40:06.520Z,0.41
2023-02-15T13:41:09.098Z,0.42
2023-02-15T13:42:11.660Z,0.34
2023-02-15T13:43:14.207Z,0.29
2023-02-15T13:44:16.770Z,0.33
2023-02-15T13:45:19.287Z,0.28
2023-02-15T13:46:22.269Z,0.24
2023-02-15T13:47:25.047Z,0.23
2023-02-15T13:48:40.166Z,0.28
2023-02-15T13:49:32.216Z,0.35
2023-02-15T13:50:34.861Z,0.27
2023-02-15T13:51:37.412Z,0.21
2023-02-15T13:52:39.995Z,0.17
2023-02-15T13:53:42.851Z,0.23
2023-02-15T13:54:45.392Z,0.24
2023-02-15T13:55:47.936Z,0.25
2023-02-15T13:56:50.789Z,0.20
2023-02-15T13:57:53.438Z,0.11
2023-02-15T13:58:55.976Z,0.17
2023-02-15T13:59:58.514Z,0.16
2023-02-15T14:01:01.843Z,0.26
2023-02-15T14:02:04.750Z,0.31
2023-02-15T14:03:07.323Z,0.25
2023-02-15T14:04:10.124Z,0.17
2023-02-15T14:05:13.242Z,0.18
2023-02-15T14:06:16.729Z,0.10
2023-02-15T14:07:19.275Z,0.05
2023-02-15T14:08:21.856Z,0.13
2023-02-15T14:09:24.400Z,0.15
2023-02-15T14:10:27.352Z,0.15
2023-02-15T14:11:29.928Z,0.23
2023-02-15T14:12:32.480Z,0.07
2023-02-15T14:13:35.055Z,0.06
2023-02-15T14:14:37.647Z,0.04
2023-02-15T14:15:40.197Z,0.05
2023-02-15T14:16:43.138Z,0.12
2023-02-15T14:17:45.995Z,0.12
2023-02-15T14:18:48.715Z,0.05
2023-02-15T14:19:51.298Z,0.02
2023-02-15T14:20:54.384Z,0.01
2023-02-15T14:21:56.906Z,-0.13
2023-02-15T14:22:59.462Z,-0.06
2023-02-15T14:24:02.032Z,-0.21
2023-02-15T14:25:04.584Z,-0.31
2023-02-15T14:26:07.339Z,-0.29
2023-02-15T14:27:10.033Z,-0.31
2023-02-15T14:28:12.574Z,-0.18
2023-02-15T14:29:15.180Z,-0.11
2023-02-15T14:30:19.500Z,-0.09
2023-02-15T14:31:22.383Z,-0.10
2023-02-15T14:32:25.310Z,-0.04
2023-02-15T14:33:28.700Z,-0.04
2023-02-15T14:34:31.561Z,-0.12
2023-02-15T14:35:34.160Z,-0.16
2023-02-15T14:36:36.796Z,-0.19
2023-02-15T14:37:39.384Z,-0.18
2023-02-15T14:38:41.931Z,-0.26
2023-02-15T14:39:44.525Z,-0.24
2023-02-15T14:40:47.471Z,-0.18
2023-02-15T14:41:50.115Z,-0.24
2023-02-15T14:42:52.707Z,-0.20
2023-02-15T14:43:55.295Z,-0.31
2023-02-15T14:44:57.965Z,-0.29
2023-02-15T14:46:00.672Z,-0.29
2023-02-15T14:47:03.256Z,-0.32
2023-02-15T14:48:05.912Z,-0.28
2023-02-15T14:49:08.465Z,-0.32
2023-02-15T14:50:11.840Z,-0.32
2023-02-15T14:51:14.393Z,-0.27
2023-02-15T14:52:16.968Z,-0.29
2023-02-15T14:53:19.547Z,-0.41
2023-02-15T14:54:22.167Z,-0.39
2023-02-15T14:55:24.772Z,-0.42
2023-02-15T14:56:27.587Z,-0.40
2023-02-15T14:57:32.459Z,-0.47
2023-02-15T14:58:34.737Z,-0.38
2023-02-15T14:59:37.591Z,-0.28
2023-02-15T15:00:40.719Z,-0.33
2023-02-15T15:01:43.289Z,-0.43
2023-02-15T15:02:47.860Z,-0.41
2023-02-15T15:03:50.576Z,-0.46
2023-02-15T15:04:53.360Z,-0.35
2023-02-15T15:05:55.988Z,-0.42
2023-02-15T15:06:58.859Z,-0.43
2023-02-15T15:08:01.397Z,-0.43
2023-02-15T15:09:03.940Z,-0.48
2023-02-15T15:10:06.912Z,-0.50
2023-02-15T15:11:10.227Z,-0.41
2023-02-15T15:12:12.805Z,-0.46
2023-02-15T15:13:15.347Z,-0.44
2023-02-15T15:14:17.882Z,-0.53
2023-02-15T15:15:20.570Z,-0.43
2023-02-15T15:16:24.430Z,-0.46
2023-02-15T15:17:27.075Z,-0.51
2023-02-15T15:18:29.669Z,-0.52
2023-02-15T15:19:44.433Z,-0.46
2023-02-15T15:20:37.037Z,-0.45
2023-02-15T15:21:39.932Z,-0.50
2023-02-15T15:22:42.567Z,-0.47
2023-02-15T15:23:45.240Z,-0.61
2023-02-15T15:24:47.850Z,-0.54
2023-02-15T15:25:50.481Z,-0.68
2023-02-15T15:26:53.909Z,-0.71
2023-02-15T15:27:56.479Z,-0.71
2023-02-15T15:28:59.085Z,-0.67
2023-02-15T15:30:01.837Z,-0.63
2023-02-15T15:31:04.660Z,-0.61
2023-02-15T15:32:07.634Z,-0.66
2023-02-15T15:33:10.614Z,-0.69
2023-02-15T15:34:13.158Z,-0.69
2023-02-15T15:35:15.716Z,-0.67
2023-02-15T15:36:18.455Z,-0.61
2023-02-15T15:37:21.050Z,-0.69
2023-02-15T15:38:23.593Z,-0.66
2023-02-15T15:39:26.163Z,-0.77
2023-02-15T15:40:28.710Z,-0.75
